Time;durP1;ratioP1;P1;durP2;ratioP2;P2;SDS_P1;SDS_P2;PMS_P1;PMS_P2;Temp;Humidity;BMP_temperature;BMP_pressure;BME280_temperature;BME280_humidity;BME280_pressure;Samples;Min_cycle;Max_cycle;Signal;HPM_P1;HPM_P2
2022/03/06 00:02:05;;;;;;;;;;;;;;;;;;;;;
2022/03/06 00:04:42;;;;;;;;;;;1.40;71.40;;;;;;5061553;28;20292;-84
2022/03/06 00:07:43;;;;;;;;;;;1.40;71.10;;;;;;5030747;28;19931;-83
2022/03/06 00:13:14;;;;;;;;;;;1.30;71.80;;;;;;5053855;28;19913;-83
2022/03/06 00:15:43;;;;;;;;;;;1.30;72.00;;;;;;5034228;28;20294;-83
2022/03/06 00:18:18;;;;;;;;;;;1.20;72.70;;;;;;5036994;28;19920;-83
2022/03/06 00:20:46;;;;;;;;;;;1.30;72.70;;;;;;5026528;28;20355;-83
2022/03/06 00:23:12;;;;;;;;;;;1.20;72.50;;;;;;5035235;28;19960;-83
2022/03/06 00:25:40;;;;;;;;;;;1.20;72.70;;;;;;5038143;28;19923;-83
2022/03/06 00:28:06;;;;;;;;;;;1.10;72.10;;;;;;5036339;28;19916;-83
2022/03/06 00:30:31;;;;;;;;;;;1.10;72.40;;;;;;5034905;28;19974;-83
2022/03/06 00:33:03;;;;;;;;;;;1.10;72.70;;;;;;5053375;28;20019;-83
2022/03/06 00:35:37;;;;;;;;;;;1.10;72.50;;;;;;5060060;28;20294;-83
2022/03/06 00:38:03;;;;;;;;;;;1.20;72.30;;;;;;5037485;28;19956;-83
2022/03/06 00:40:57;;;;;;;;;;;1.20;72.40;;;;;;5060955;28;19913;-83
2022/03/06 00:43:42;;;;;;;;;;;1.10;72.00;;;;;;5063429;28;19912;-83
2022/03/06 00:46:34;;;;;;;;;;;;;;;;;;;;;
2022/03/06 00:49:17;;;;;;;;;;;;;;;;;;;;;
2022/03/06 00:51:49;;;;;;;;;;;1.20;71.70;;;;;;5053914;28;19935;-83
2022/03/06 00:54:19;;;;;;;;;;;1.10;71.20;;;;;;5035781;28;19921;-83
2022/03/06 00:56:51;;;;;;;;;;;1.10;71.60;;;;;;5045979;28;19934;-83
2022/03/06 00:59:34;;;;;;;;;;;;;;;;;;;;;
2022/03/06 01:02:01;;;;;;;;;;;1.10;71.80;;;;;;5047672;28;19913;-83
2022/03/06 01:04:48;;;;;;;;;;;1.10;71.90;;;;;;5034082;28;19952;-83
2022/03/06 01:07:13;;;;;;;;;;;1.10;71.90;;;;;;5034141;28;19924;-83
2022/03/06 01:09:52;;;;;;;;;;;1.10;71.90;;;;;;5033345;28;19976;-82
2022/03/06 01:12:31;;;;;;;;;;;1.10;71.40;;;;;;5047265;28;20405;-83
2022/03/06 01:17:42;;;;;;;;;;;1.00;72.30;;;;;;5047677;28;19912;-83
2022/03/06 01:20:39;;;;;;;;;;;1.10;71.60;;;;;;5039060;28;19975;-83
2022/03/06 01:23:16;;;;;;;;;;;1.10;71.50;;;;;;5048597;28;19966;-83
2022/03/06 01:26:14;;;;;;;;;;;1.00;71.70;;;;;;5059802;28;19971;-83
2022/03/06 01:29:18;;;;;;;;;;;1.10;71.30;;;;;;5034266;28;19936;-83
2022/03/06 01:31:47;;;;;;;;;;;1.00;71.20;;;;;;5014367;28;19975;-83
2022/03/06 01:37:37;;;;;;;;;;;0.80;71.60;;;;;;5052891;28;19999;-82
2022/03/06 01:40:08;;;;;;;;;;;0.90;71.70;;;;;;5063063;28;19939;-83
2022/03/06 01:42:40;;;;;;;;;;;0.90;71.70;;;;;;5036926;28;20171;-83
2022/03/06 01:45:06;;;;;;;;;;;0.80;72.20;;;;;;5058048;28;19927;-83
2022/03/06 01:47:39;;;;;;;;;;;0.80;72.10;;;;;;5035736;28;19924;-83
2022/03/06 01:50:30;;;;;;;;;;;0.70;72.10;;;;;;5026316;28;20343;-83
2022/03/06 01:53:07;;;;;;;;;;;0.70;72.50;;;;;;5048444;28;19928;-83
2022/03/06 01:55:51;;;;;;;;;;;0.80;72.20;;;;;;5045172;28;20406;-83
2022/03/06 01:58:17;;;;;;;;;;;0.70;72.00;;;;;;5065454;28;20338;-83
2022/03/06 02:00:44;;;;;;;;;;;0.70;72.30;;;;;;5045174;28;20028;-83
2022/03/06 02:03:19;;;;;;;;;;;0.60;72.70;;;;;;5032791;28;19971;-83
2022/03/06 02:05:45;;;;;;;;;;;0.70;72.90;;;;;;5045990;28;19967;-83
2022/03/06 02:08:18;;;;;;;;;;;0.70;72.90;;;;;;5034346;28;19920;-83
2022/03/06 02:10:43;;;;;;;;;;;0.70;72.80;;;;;;5050639;28;19948;-83
2022/03/06 02:13:11;;;;;;;;;;;0.70;72.60;;;;;;5034615;28;19924;-83
2022/03/06 02:15:37;;;;;;;;;;;0.70;72.50;;;;;;5051348;28;19924;-83
2022/03/06 02:18:16;;;;;;;;;;;0.70;72.40;;;;;;5039420;28;19913;-83
2022/03/06 02:20:41;;;;;;;;;;;0.70;72.00;;;;;;5025919;28;19924;-83
2022/03/06 02:23:07;;;;;;;;;;;0.60;71.90;;;;;;5034301;28;19913;-83
2022/03/06 02:25:39;;;;;;;;;;;0.60;72.10;;;;;;5042939;28;19992;-83
2022/03/06 02:28:15;;;;;;;;;;;0.60;72.00;;;;;;5039013;28;19913;-83
2022/03/06 02:30:44;;;;;;;;;;;0.60;72.40;;;;;;5058162;28;19923;-83
2022/03/06 02:33:20;;;;;;;;;;;0.70;72.40;;;;;;5038878;28;19923;-83
2022/03/06 02:35:50;;;;;;;;;;;0.70;72.90;;;;;;5060243;28;19973;-83
2022/03/06 02:38:15;;;;;;;;;;;0.60;72.60;;;;;;5044222;28;19917;-83
2022/03/06 02:40:44;;;;;;;;;;;0.60;72.90;;;;;;5059555;28;20872;-83
2022/03/06 02:43:13;;;;;;;;;;;0.60;73.20;;;;;;5042185;28;19916;-83
2022/03/06 02:45:50;;;;;;;;;;;0.60;72.80;;;;;;5054700;28;20655;-83
2022/03/06 02:48:29;;;;;;;;;;;;;;;;;;;;;
2022/03/06 02:51:00;;;;;;;;;;;0.40;72.80;;;;;;5051959;28;19919;-83
2022/03/06 02:53:32;;;;;;;;;;;0.40;73.20;;;;;;5037294;28;19917;-83
2022/03/06 02:55:58;;;;;;;;;;;0.30;73.20;;;;;;5036240;28;19960;-83
2022/03/06 02:58:24;;;;;;;;;;;0.50;72.80;;;;;;5056588;28;19913;-83
2022/03/06 03:00:55;;;;;;;;;;;0.40;73.00;;;;;;5035481;28;19966;-83
2022/03/06 03:03:21;;;;;;;;;;;0.30;73.10;;;;;;5041119;28;20007;-83
2022/03/06 03:05:49;;;;;;;;;;;0.30;73.20;;;;;;5037843;28;19940;-83
2022/03/06 03:08:15;;;;;;;;;;;0.40;73.90;;;;;;5061897;28;19920;-83
2022/03/06 03:10:58;;;;;;;;;;;0.50;73.80;;;;;;5044905;28;20015;-82
2022/03/06 03:13:23;;;;;;;;;;;0.50;73.60;;;;;;5029290;28;19920;-83
2022/03/06 03:15:52;;;;;;;;;;;0.50;73.20;;;;;;5054464;28;19909;-83
2022/03/06 03:18:42;;;;;;;;;;;0.60;73.10;;;;;;5058823;28;19920;-83
2022/03/06 03:21:13;;;;;;;;;;;0.60;73.10;;;;;;5072794;28;20027;-83
2022/03/06 03:23:41;;;;;;;;;;;0.60;72.90;;;;;;5057244;28;20363;-84
2022/03/06 03:29:06;;;;;;;;;;;0.60;73.30;;;;;;5063902;28;20175;-83
2022/03/06 03:31:32;;;;;;;;;;;0.60;73.10;;;;;;5035855;28;19925;-83
2022/03/06 03:34:07;;;;;;;;;;;0.60;72.90;;;;;;5040703;28;20281;-83
2022/03/06 03:36:33;;;;;;;;;;;0.50;72.90;;;;;;5057520;28;19913;-83
2022/03/06 03:38:58;;;;;;;;;;;0.50;73.80;;;;;;5037776;28;20290;-83
2022/03/06 03:41:24;;;;;;;;;;;0.50;73.50;;;;;;5038559;28;19920;-84
2022/03/06 03:43:51;;;;;;;;;;;0.60;73.40;;;;;;5049601;28;19916;-84
2022/03/06 03:46:16;;;;;;;;;;;0.60;73.30;;;;;;5040390;28;20015;-83
2022/03/06 03:48:42;;;;;;;;;;;0.80;73.20;;;;;;5037417;28;19921;-83
2022/03/06 03:51:07;;;;;;;;;;;0.80;72.60;;;;;;5054579;28;19966;-83
2022/03/06 03:56:27;;;;;;;;;;;0.80;72.90;;;;;;5029688;28;19913;-83
2022/03/06 03:58:53;;;;;;;;;;;0.80;73.20;;;;;;5054064;28;19917;-83
2022/03/06 04:01:43;;;;;;;;;;;0.80;73.20;;;;;;5035134;28;19920;-83
2022/03/06 04:04:11;;;;;;;;;;;0.80;72.60;;;;;;5050218;28;20360;-83
2022/03/06 04:06:39;;;;;;;;;;;0.80;72.60;;;;;;5057328;28;19999;-84
2022/03/06 04:09:10;;;;;;;;;;;0.80;72.30;;;;;;5052072;28;19921;-83
2022/03/06 04:11:44;;;;;;;;;;;0.70;72.10;;;;;;5035949;28;20375;-83
2022/03/06 04:14:12;;;;;;;;;;;0.60;72.40;;;;;;5019230;28;20280;-83
2022/03/06 04:16:51;;;;;;;;;;;;;;;;;;;;;
2022/03/06 04:19:19;;;;;;;;;;;0.80;72.30;;;;;;5050031;28;19917;-82
2022/03/06 04:21:47;;;;;;;;;;;0.70;71.90;;;;;;5059780;28;19912;-83
2022/03/06 04:24:21;;;;;;;;;;;0.60;72.10;;;;;;5034443;28;19913;-83
2022/03/06 04:26:49;;;;;;;;;;;0.60;72.30;;;;;;5051585;28;19923;-83
2022/03/06 04:29:17;;;;;;;;;;;0.50;72.60;;;;;;5034365;28;20380;-83
2022/03/06 04:31:45;;;;;;;;;;;0.50;72.70;;;;;;5034360;28;20504;-82
2022/03/06 04:34:10;;;;;;;;;;;0.60;72.60;;;;;;5053444;28;19941;-83
2022/03/06 04:36:36;;;;;;;;;;;0.60;72.30;;;;;;5034768;28;19917;-83
2022/03/06 04:39:09;;;;;;;;;;;0.60;72.80;;;;;;5034520;28;20328;-83
2022/03/06 04:41:35;;;;;;;;;;;0.60;73.00;;;;;;5038924;28;19921;-81
2022/03/06 04:44:09;;;;;;;;;;;0.70;73.10;;;;;;5068271;28;19932;-84
2022/03/06 04:46:34;;;;;;;;;;;0.60;72.50;;;;;;5045925;28;20014;-83
2022/03/06 04:49:06;;;;;;;;;;;0.60;72.50;;;;;;5044083;28;19935;-82
2022/03/06 04:51:37;;;;;;;;;;;0.60;72.40;;;;;;5037826;28;20014;-83
2022/03/06 04:54:10;;;;;;;;;;;0.70;72.30;;;;;;5042554;28;19931;-83
2022/03/06 04:56:47;;;;;;;;;;;0.60;72.50;;;;;;5054111;28;19913;-83
2022/03/06 04:59:13;;;;;;;;;;;0.60;72.10;;;;;;5034753;28;19912;-83
2022/03/06 05:01:39;;;;;;;;;;;0.60;72.10;;;;;;5051780;28;20055;-83
2022/03/06 05:04:04;;;;;;;;;;;0.60;72.40;;;;;;5028527;28;20357;-83
2022/03/06 05:06:32;;;;;;;;;;;0.60;72.50;;;;;;5057109;28;20351;-83
2022/03/06 05:09:03;;;;;;;;;;;0.50;72.50;;;;;;5045547;28;19913;-82
2022/03/06 05:11:33;;;;;;;;;;;0.50;72.80;;;;;;5034687;28;19981;-83
2022/03/06 05:14:12;;;;;;;;;;;0.50;72.50;;;;;;5052282;28;19912;-83
2022/03/06 05:16:40;;;;;;;;;;;0.50;72.90;;;;;;5022045;28;19913;-83
2022/03/06 05:19:13;;;;;;;;;;;0.40;72.70;;;;;;5034445;28;20018;-83
2022/03/06 05:21:40;;;;;;;;;;;0.30;73.00;;;;;;5034439;28;20444;-83
2022/03/06 05:24:05;;;;;;;;;;;0.30;73.20;;;;;;5030880;28;19963;-83
2022/03/06 05:26:31;;;;;;;;;;;0.30;73.40;;;;;;5033999;28;20003;-84
2022/03/06 05:28:56;;;;;;;;;;;0.30;73.40;;;;;;5054475;28;19913;-84
2022/03/06 05:31:22;;;;;;;;;;;0.30;73.90;;;;;;5031343;28;20288;-83
2022/03/06 05:33:55;;;;;;;;;;;0.30;73.90;;;;;;5019804;28;20487;-83
2022/03/06 05:36:22;;;;;;;;;;;0.20;73.80;;;;;;5033661;28;20375;-83
2022/03/06 05:38:50;;;;;;;;;;;0.10;74.20;;;;;;5050150;28;20597;-83
2022/03/06 05:41:16;;;;;;;;;;;0.10;74.30;;;;;;5032625;28;19917;-83
2022/03/06 05:43:41;;;;;;;;;;;0.10;74.10;;;;;;5052441;28;20031;-83
2022/03/06 05:46:09;;;;;;;;;;;0.10;74.00;;;;;;5051444;28;19927;-83
2022/03/06 05:48:35;;;;;;;;;;;0.10;74.40;;;;;;5049221;28;19955;-82
2022/03/06 05:51:08;;;;;;;;;;;0.20;74.10;;;;;;5033244;28;19941;-83
2022/03/06 05:53:34;;;;;;;;;;;0.10;74.00;;;;;;5037919;28;19917;-83
2022/03/06 05:55:59;;;;;;;;;;;0.10;74.00;;;;;;5062864;28;19921;-83
2022/03/06 05:58:24;;;;;;;;;;;0.10;74.30;;;;;;5028404;28;19912;-83
2022/03/06 06:00:52;;;;;;;;;;;0.10;74.10;;;;;;5035094;28;20404;-83
2022/03/06 06:03:18;;;;;;;;;;;0.10;74.00;;;;;;5037580;28;20490;-84
2022/03/06 06:05:43;;;;;;;;;;;0.10;73.80;;;;;;5034438;28;19975;-83
2022/03/06 06:08:09;;;;;;;;;;;0.10;73.90;;;;;;5040837;28;19992;-83
2022/03/06 06:10:58;;;;;;;;;;;0.00;74.00;;;;;;5057854;28;20077;-83
2022/03/06 06:13:31;;;;;;;;;;;0.10;73.50;;;;;;5056519;28;20526;-84
2022/03/06 06:16:01;;;;;;;;;;;0.10;73.30;;;;;;5063205;28;19917;-83
2022/03/06 06:18:31;;;;;;;;;;;0.10;73.60;;;;;;5040301;28;19913;-83
2022/03/06 06:20:59;;;;;;;;;;;0.00;73.50;;;;;;5030173;28;19917;-83
2022/03/06 06:23:34;;;;;;;;;;;0.20;73.60;;;;;;5047179;28;19951;-83
2022/03/06 06:26:10;;;;;;;;;;;0.10;73.20;;;;;;5047692;28;19928;-83
2022/03/06 06:28:52;;;;;;;;;;;0.10;74.00;;;;;;5041024;28;19917;-83
2022/03/06 06:31:20;;;;;;;;;;;0.10;73.70;;;;;;5041087;28;19948;-83
2022/03/06 06:33:56;;;;;;;;;;;;;;;;;;;;;
2022/03/06 06:36:48;;;;;;;;;;;0.10;73.90;;;;;;5058361;28;19913;-83
2022/03/06 06:39:39;;;;;;;;;;;0.20;73.50;;;;;;5037056;28;20008;-83
2022/03/06 06:42:32;;;;;;;;;;;0.10;73.10;;;;;;5031106;28;19912;-83
2022/03/06 06:45:02;;;;;;;;;;;0.10;73.30;;;;;;5021652;28;20356;-83
2022/03/06 06:47:31;;;;;;;;;;;0.10;73.00;;;;;;5056933;28;19921;-84
2022/03/06 06:49:59;;;;;;;;;;;0.10;73.10;;;;;;5033577;28;19967;-83
2022/03/06 06:52:25;;;;;;;;;;;0.20;73.30;;;;;;5037879;28;20003;-84
2022/03/06 06:54:53;;;;;;;;;;;0.30;72.60;;;;;;5038184;28;20330;-84
2022/03/06 06:57:22;;;;;;;;;;;0.30;72.30;;;;;;5057406;28;19969;-84
2022/03/06 06:59:53;;;;;;;;;;;0.30;72.60;;;;;;5036761;28;19959;-84
2022/03/06 07:02:24;;;;;;;;;;;0.40;72.70;;;;;;5053345;28;19912;-84
2022/03/06 07:04:50;;;;;;;;;;;0.30;72.60;;;;;;5031974;28;20294;-84
2022/03/06 07:07:21;;;;;;;;;;;0.20;72.50;;;;;;5055458;28;19920;-84
2022/03/06 07:12:58;;;;;;;;;;;0.30;72.60;;;;;;5046976;28;19920;-84
2022/03/06 07:15:32;;;;;;;;;;;0.30;72.70;;;;;;5037697;28;19916;-83
2022/03/06 07:18:04;;;;;;;;;;;0.30;72.90;;;;;;5056408;28;19924;-84
2022/03/06 07:20:40;;;;;;;;;;;0.50;72.60;;;;;;5054383;28;19913;-84
2022/03/06 07:23:10;;;;;;;;;;;0.50;72.30;;;;;;5031693;28;20471;-83
2022/03/06 07:25:38;;;;;;;;;;;0.50;72.10;;;;;;5050873;28;19968;-85
2022/03/06 07:28:04;;;;;;;;;;;0.60;72.50;;;;;;5039308;28;20324;-84
2022/03/06 07:34:00;;;;;;;;;;;;;;;;;;;;;
2022/03/06 07:36:26;;;;;;;;;;;0.50;72.10;;;;;;5032973;28;20312;-85
2022/03/06 07:38:59;;;;;;;;;;;0.60;71.50;;;;;;5039131;28;20003;-85
2022/03/06 07:41:33;;;;;;;;;;;0.80;71.50;;;;;;5040156;28;20294;-85
2022/03/06 07:44:04;;;;;;;;;;;0.80;71.20;;;;;;5039423;28;19912;-83
2022/03/06 07:46:32;;;;;;;;;;;0.90;71.10;;;;;;5037761;28;19913;-84
2022/03/06 07:49:00;;;;;;;;;;;1.10;70.60;;;;;;5036749;28;19968;-83
2022/03/06 07:51:26;;;;;;;;;;;1.30;70.30;;;;;;5061267;28;19916;-84
2022/03/06 07:54:01;;;;;;;;;;;1.40;70.10;;;;;;5045660;28;19924;-83
2022/03/06 07:56:32;;;;;;;;;;;1.40;69.80;;;;;;5038110;28;19917;-82
2022/03/06 07:59:35;;;;;;;;;;;1.50;70.30;;;;;;5033820;28;20040;-84
2022/03/06 08:02:03;;;;;;;;;;;1.60;70.00;;;;;;5028772;28;20331;-86
2022/03/06 08:04:33;;;;;;;;;;;1.70;69.30;;;;;;5039045;28;19912;-85
2022/03/06 08:07:01;;;;;;;;;;;1.80;68.50;;;;;;5022676;28;19914;-86
2022/03/06 08:09:38;;;;;;;;;;;1.70;67.80;;;;;;5038819;28;19912;-86
2022/03/06 08:12:04;;;;;;;;;;;1.60;68.10;;;;;;5044289;28;19909;-84
2022/03/06 08:14:48;;;;;;;;;;;1.70;68.10;;;;;;5052198;28;20004;-83
2022/03/06 08:17:21;;;;;;;;;;;1.80;68.80;;;;;;5030755;28;20016;-84
2022/03/06 08:19:57;;;;;;;;;;;1.60;68.80;;;;;;5034730;28;19989;-83
2022/03/06 08:29:03;;;;;;;;;;;1.60;68.70;;;;;;5054389;28;20418;-83
2022/03/06 08:31:41;;;;;;;;;;;1.80;68.50;;;;;;5045775;28;19913;-82
2022/03/06 08:34:24;;;;;;;;;;;;;;;;;;;;;
2022/03/06 08:36:58;;;;;;;;;;;1.80;68.00;;;;;;5058597;28;19999;-85
2022/03/06 08:39:24;;;;;;;;;;;2.00;68.20;;;;;;5058882;28;19944;-83
2022/03/06 08:41:49;;;;;;;;;;;2.00;67.60;;;;;;5058170;28;19908;-84
2022/03/06 08:44:36;;;;;;;;;;;2.00;67.90;;;;;;5042961;28;19955;-83
2022/03/06 08:47:36;;;;;;;;;;;2.00;68.20;;;;;;5035986;28;20466;-83
2022/03/06 08:50:33;;;;;;;;;;;2.10;67.70;;;;;;5002357;28;20509;-82
2022/03/06 08:53:25;;;;;;;;;;;2.10;67.10;;;;;;5040110;28;19936;-83
2022/03/06 08:56:22;;;;;;;;;;;2.00;68.40;;;;;;5042001;28;19916;-83
2022/03/06 09:02:18;;;;;;;;;;;1.80;69.00;;;;;;5042526;28;19967;-83
2022/03/06 09:04:50;;;;;;;;;;;1.90;68.20;;;;;;5053668;28;20402;-83
2022/03/06 09:07:25;;;;;;;;;;;1.70;68.80;;;;;;5049230;28;20031;-82
2022/03/06 09:10:00;;;;;;;;;;;1.90;68.20;;;;;;5027259;28;20346;-83
2022/03/06 09:12:42;;;;;;;;;;;2.10;68.00;;;;;;5028568;28;20690;-83
2022/03/06 09:15:27;;;;;;;;;;;;;;;;;;;;;
2022/03/06 09:18:04;;;;;;;;;;;2.00;68.00;;;;;;5054202;28;19909;-82
2022/03/06 09:20:32;;;;;;;;;;;2.10;67.80;;;;;;5030654;28;19992;-85
2022/03/06 09:22:58;;;;;;;;;;;2.10;67.90;;;;;;5060174;28;20282;-82
2022/03/06 09:25:23;;;;;;;;;;;2.10;67.90;;;;;;5061195;28;19925;-81
2022/03/06 09:27:49;;;;;;;;;;;2.30;68.80;;;;;;5035163;28;19917;-82
2022/03/06 09:30:15;;;;;;;;;;;2.30;67.70;;;;;;5052607;28;20359;-80
2022/03/06 09:32:40;;;;;;;;;;;2.40;67.20;;;;;;5054043;28;19916;-81
2022/03/06 09:35:07;;;;;;;;;;;2.40;67.10;;;;;;5053355;28;19916;-81
2022/03/06 09:37:33;;;;;;;;;;;2.40;67.00;;;;;;5035791;28;19912;-79
2022/03/06 09:39:59;;;;;;;;;;;2.40;67.70;;;;;;5049990;28;20490;-81
2022/03/06 09:42:25;;;;;;;;;;;2.60;67.70;;;;;;5036160;28;19928;-80
2022/03/06 09:44:50;;;;;;;;;;;2.60;67.00;;;;;;5053453;28;19913;-81
2022/03/06 09:47:16;;;;;;;;;;;2.60;66.70;;;;;;5055627;28;20027;-81
2022/03/06 09:49:43;;;;;;;;;;;2.60;66.50;;;;;;5057870;28;19920;-81
2022/03/06 09:52:08;;;;;;;;;;;2.60;66.60;;;;;;5040541;28;19919;-80
2022/03/06 09:54:34;;;;;;;;;;;2.60;67.30;;;;;;5062004;28;20076;-82
2022/03/06 09:57:00;;;;;;;;;;;2.80;66.50;;;;;;5038485;28;19913;-81
2022/03/06 09:59:27;;;;;;;;;;;2.90;66.50;;;;;;5034938;28;19928;-82
2022/03/06 10:01:52;;;;;;;;;;;3.00;66.20;;;;;;5062617;28;20306;-82
2022/03/06 10:04:21;;;;;;;;;;;3.10;65.70;;;;;;5058171;28;20040;-80
2022/03/06 10:07:00;;;;;;;;;;;3.10;66.60;;;;;;5062693;28;19952;-80
2022/03/06 10:09:26;;;;;;;;;;;3.10;66.10;;;;;;5055393;28;19996;-80
2022/03/06 10:11:54;;;;;;;;;;;3.30;64.80;;;;;;5055751;28;20015;-81
2022/03/06 10:14:52;;;;;;;;;;;3.40;65.20;;;;;;5051607;28;19913;-82
2022/03/06 10:17:22;;;;;;;;;;;3.50;64.10;;;;;;4990713;28;19913;-80
2022/03/06 10:19:50;;;;;;;;;;;3.50;65.10;;;;;;5057494;28;20366;-81
2022/03/06 10:22:16;;;;;;;;;;;3.60;65.30;;;;;;5060332;28;20035;-81
2022/03/06 10:25:04;;;;;;;;;;;3.80;64.50;;;;;;5037148;28;20020;-83
2022/03/06 10:27:47;;;;;;;;;;;4.00;63.70;;;;;;5048980;28;19917;-84
2022/03/06 10:30:23;;;;;;;;;;;3.90;60.90;;;;;;5068148;28;19973;-81
2022/03/06 10:32:49;;;;;;;;;;;4.10;61.30;;;;;;5027802;28;19943;-81
2022/03/06 10:35:14;;;;;;;;;;;4.20;61.50;;;;;;5051720;28;19917;-81
2022/03/06 10:37:40;;;;;;;;;;;4.30;60.60;;;;;;5042667;28;19917;-79
2022/03/06 10:40:07;;;;;;;;;;;4.40;59.60;;;;;;5036227;28;19991;-80
2022/03/06 10:42:33;;;;;;;;;;;4.40;58.50;;;;;;5060972;28;20077;-81
2022/03/06 10:44:58;;;;;;;;;;;4.50;60.40;;;;;;5053446;28;20039;-80
2022/03/06 10:47:26;;;;;;;;;;;4.70;58.10;;;;;;5038619;28;19913;-81
2022/03/06 10:49:59;;;;;;;;;;;4.70;57.60;;;;;;5039909;28;19909;-81
2022/03/06 10:52:25;;;;;;;;;;;4.80;58.10;;;;;;5042284;28;19939;-79
2022/03/06 10:54:50;;;;;;;;;;;4.90;57.50;;;;;;5034032;28;20678;-81
2022/03/06 10:57:16;;;;;;;;;;;4.90;56.60;;;;;;5052001;28;19924;-81
2022/03/06 10:59:43;;;;;;;;;;;4.90;55.60;;;;;;5050141;28;19943;-82
2022/03/06 11:02:11;;;;;;;;;;;4.90;54.60;;;;;;5032087;28;19983;-81
2022/03/06 11:04:37;;;;;;;;;;;4.90;55.40;;;;;;5053458;28;19924;-81
2022/03/06 11:07:02;;;;;;;;;;;5.00;56.40;;;;;;5035510;28;19924;-81
2022/03/06 11:09:29;;;;;;;;;;;5.10;54.70;;;;;;5033500;28;20004;-81
2022/03/06 11:11:57;;;;;;;;;;;5.10;55.20;;;;;;5052811;22;19924;-87
2022/03/06 11:14:48;;;;;;;;;;;5.40;55.40;;;;;;5050477;28;19927;-88
2022/03/06 11:17:34;;;;;;;;;;;5.30;53.30;;;;;;5045536;28;20740;-88
2022/03/06 11:20:02;;;;;;;;;;;5.40;51.00;;;;;;5063434;28;19939;-86
2022/03/06 11:22:34;;;;;;;;;;;5.50;50.80;;;;;;5058297;28;19939;-87
2022/03/06 11:25:15;;;;;;;;;;;5.60;53.30;;;;;;5055272;28;19919;-87
2022/03/06 11:28:07;;;;;;;;;;;5.70;52.50;;;;;;5072684;28;19931;-86
2022/03/06 11:30:33;;;;;;;;;;;6.00;52.90;;;;;;5034316;28;19913;-87
2022/03/06 11:33:09;;;;;;;;;;;5.90;51.10;;;;;;5041346;28;20365;-87
2022/03/06 11:35:34;;;;;;;;;;;5.90;51.20;;;;;;5038195;28;20392;-87
2022/03/06 11:38:04;;;;;;;;;;;6.20;48.30;;;;;;5068688;28;19952;-88
2022/03/06 11:40:40;;;;;;;;;;;6.10;46.60;;;;;;5053630;28;19921;-89
2022/03/06 11:43:09;;;;;;;;;;;6.10;48.50;;;;;;5039627;28;19913;-87
2022/03/06 11:49:03;;;;;;;;;;;6.20;46.30;;;;;;5030889;28;19957;-90
2022/03/06 11:51:29;;;;;;;;;;;6.50;47.20;;;;;;5049706;28;19913;-89
2022/03/06 11:54:02;;;;;;;;;;;6.40;46.90;;;;;;5040630;28;19913;-88
2022/03/06 11:56:31;;;;;;;;;;;6.40;47.70;;;;;;5066348;28;19917;-88
2022/03/06 11:59:02;;;;;;;;;;;6.50;47.10;;;;;;5066593;28;19916;-88
2022/03/06 12:01:38;;;;;;;;;;;6.30;46.90;;;;;;5060766;28;19943;-88
2022/03/06 12:04:11;;;;;;;;;;;6.20;47.70;;;;;;5044809;28;19974;-88
2022/03/06 12:06:41;;;;;;;;;;;6.30;47.60;;;;;;5038951;28;19912;-87
2022/03/06 12:09:13;;;;;;;;;;;6.20;47.60;;;;;;5066145;28;19913;-89
2022/03/06 12:11:39;;;;;;;;;;;6.30;47.30;;;;;;5047499;28;19916;-86
2022/03/06 12:14:11;;;;;;;;;;;6.20;47.30;;;;;;5045963;28;19958;-87
2022/03/06 12:16:36;;;;;;;;;;;6.10;47.10;;;;;;5063611;28;19952;-86
2022/03/06 12:19:03;;;;;;;;;;;6.10;47.00;;;;;;5035642;28;20373;-87
2022/03/06 12:21:38;;;;;;;;;;;6.00;46.70;;;;;;5063856;28;21300;-88
2022/03/06 12:24:11;;;;;;;;;;;6.00;47.10;;;;;;5052065;28;19920;-89
2022/03/06 12:26:46;;;;;;;;;;;6.10;47.30;;;;;;5037882;28;20457;-88
2022/03/06 12:29:30;;;;;;;;;;;6.10;46.90;;;;;;5074328;28;20296;-86
2022/03/06 12:32:21;;;;;;;;;;;5.80;48.10;;;;;;5036874;28;19920;-89
2022/03/06 12:34:46;;;;;;;;;;;5.80;47.20;;;;;;5039349;28;19936;-82
2022/03/06 12:37:12;;;;;;;;;;;6.00;46.80;;;;;;5054787;28;20397;-83
2022/03/06 12:39:37;;;;;;;;;;;6.30;47.30;;;;;;5040867;28;19920;-83
2022/03/06 12:42:03;;;;;;;;;;;6.60;46.40;;;;;;5044315;28;19951;-83
2022/03/06 12:44:30;;;;;;;;;;;6.60;46.60;;;;;;5062590;28;19917;-84
2022/03/06 12:46:56;;;;;;;;;;;6.50;46.70;;;;;;5062038;28;19932;-84
2022/03/06 12:49:23;;;;;;;;;;;6.60;45.10;;;;;;5049915;28;19912;-84
2022/03/06 12:51:50;;;;;;;;;;;6.60;44.80;;;;;;5055082;28;19917;-82
2022/03/06 12:54:17;;;;;;;;;;;6.60;44.60;;;;;;5058865;28;19913;-82
2022/03/06 12:56:43;;;;;;;;;;;6.40;45.90;;;;;;5041013;28;20540;-84
2022/03/06 12:59:10;;;;;;;;;;;6.10;46.70;;;;;;5060909;28;20015;-83
2022/03/06 13:01:37;;;;;;;;;;;6.10;46.80;;;;;;5036383;28;19917;-83
2022/03/06 13:04:03;;;;;;;;;;;6.00;47.00;;;;;;5067787;28;19913;-85
2022/03/06 13:06:29;;;;;;;;;;;6.20;46.60;;;;;;5051760;28;19935;-85
2022/03/06 13:08:55;;;;;;;;;;;6.40;45.70;;;;;;5035888;28;19924;-84
2022/03/06 13:11:21;;;;;;;;;;;6.50;45.50;;;;;;5056092;28;19999;-84
2022/03/06 13:13:46;;;;;;;;;;;6.30;46.50;;;;;;5056755;28;20352;-83
2022/03/06 13:16:22;;;;;;;;;;;6.40;47.10;;;;;;5040374;28;20027;-86
2022/03/06 13:18:48;;;;;;;;;;;6.20;47.60;;;;;;5060776;28;19928;-86
2022/03/06 13:21:14;;;;;;;;;;;6.20;47.00;;;;;;5046937;28;19947;-85
2022/03/06 13:23:39;;;;;;;;;;;6.20;48.10;;;;;;5041303;28;19920;-85
2022/03/06 13:26:05;;;;;;;;;;;6.20;47.60;;;;;;5056512;28;20385;-86
2022/03/06 13:28:30;;;;;;;;;;;6.20;47.10;;;;;;5040757;28;19921;-86
2022/03/06 13:30:59;;;;;;;;;;;6.10;47.00;;;;;;5061590;28;20384;-85
2022/03/06 13:33:26;;;;;;;;;;;6.10;47.10;;;;;;5053754;28;19916;-86
2022/03/06 13:35:52;;;;;;;;;;;6.20;47.60;;;;;;5065551;28;19996;-82
2022/03/06 13:38:24;;;;;;;;;;;6.30;47.20;;;;;;5041512;28;20398;-84
2022/03/06 13:40:53;;;;;;;;;;;6.20;46.70;;;;;;5047881;28;20277;-85
2022/03/06 13:43:30;;;;;;;;;;;6.20;46.80;;;;;;5044250;28;19913;-85
2022/03/06 13:45:55;;;;;;;;;;;6.00;47.60;;;;;;5038198;28;19917;-86
2022/03/06 13:48:23;;;;;;;;;;;6.00;46.90;;;;;;5058249;28;19947;-79
2022/03/06 13:50:50;;;;;;;;;;;6.00;46.60;;;;;;5074452;28;19987;-80
2022/03/06 13:53:26;;;;;;;;;;;6.00;46.70;;;;;;5040213;28;19936;-82
2022/03/06 13:55:58;;;;;;;;;;;6.00;46.70;;;;;;5070614;28;19936;-79
2022/03/06 13:58:25;;;;;;;;;;;6.10;46.80;;;;;;5028630;28;20384;-84
2022/03/06 14:00:55;;;;;;;;;;;5.90;47.90;;;;;;5057502;28;19928;-83
2022/03/06 14:03:28;;;;;;;;;;;6.00;47.70;;;;;;5046378;28;19927;-79
2022/03/06 14:05:54;;;;;;;;;;;6.10;47.10;;;;;;5044014;28;19965;-79
2022/03/06 14:08:26;;;;;;;;;;;6.20;46.90;;;;;;5060248;28;19978;-81
2022/03/06 14:11:02;;;;;;;;;;;6.10;46.00;;;;;;5067363;28;20019;-81
2022/03/06 14:13:28;;;;;;;;;;;6.00;46.40;;;;;;5034233;28;19916;-84
2022/03/06 14:15:55;;;;;;;;;;;6.00;46.80;;;;;;5063924;28;19931;-80
2022/03/06 14:18:29;;;;;;;;;;;6.00;47.20;;;;;;5057710;28;19944;-79
2022/03/06 14:20:55;;;;;;;;;;;6.10;46.70;;;;;;5052896;28;19924;-80
2022/03/06 14:23:20;;;;;;;;;;;5.90;47.30;;;;;;5047904;28;19925;-83
2022/03/06 14:25:46;;;;;;;;;;;6.00;46.70;;;;;;5053392;28;20004;-82
2022/03/06 14:28:11;;;;;;;;;;;5.80;48.50;;;;;;5053673;28;19912;-82
2022/03/06 14:30:37;;;;;;;;;;;5.60;47.30;;;;;;5064533;28;20377;-83
2022/03/06 14:33:04;;;;;;;;;;;5.60;48.40;;;;;;5057833;28;20399;-82
2022/03/06 14:35:30;;;;;;;;;;;5.40;47.70;;;;;;5039684;28;19908;-83
2022/03/06 14:37:55;;;;;;;;;;;5.50;48.50;;;;;;5041076;28;19947;-83
2022/03/06 14:40:22;;;;;;;;;;;5.60;47.20;;;;;;5056987;28;19909;-83
2022/03/06 14:42:48;;;;;;;;;;;5.70;47.80;;;;;;5049525;28;19933;-84
2022/03/06 14:45:13;;;;;;;;;;;6.00;48.40;;;;;;5055923;28;19924;-83
2022/03/06 14:47:39;;;;;;;;;;;6.00;47.60;;;;;;5063239;28;19992;-81
2022/03/06 14:50:04;;;;;;;;;;;5.90;47.50;;;;;;5031528;28;20294;-83
2022/03/06 14:52:30;;;;;;;;;;;6.00;46.20;;;;;;5058128;28;19947;-83
2022/03/06 14:54:55;;;;;;;;;;;5.80;46.90;;;;;;5057121;28;19924;-82
2022/03/06 14:57:21;;;;;;;;;;;5.80;46.70;;;;;;5058897;28;19980;-83
2022/03/06 14:59:46;;;;;;;;;;;5.70;46.70;;;;;;5038841;28;20345;-82
2022/03/06 15:02:12;;;;;;;;;;;5.60;47.30;;;;;;5057060;28;19974;-82
2022/03/06 15:04:37;;;;;;;;;;;5.60;47.60;;;;;;5058307;28;19909;-83
2022/03/06 15:07:03;;;;;;;;;;;5.60;47.00;;;;;;5040216;28;19982;-82
2022/03/06 15:09:29;;;;;;;;;;;5.60;48.10;;;;;;5071571;28;19909;-83
2022/03/06 15:11:55;;;;;;;;;;;5.60;47.80;;;;;;5057177;28;19963;-82
2022/03/06 15:14:20;;;;;;;;;;;5.50;48.60;;;;;;5056390;28;19921;-83
2022/03/06 15:16:46;;;;;;;;;;;5.50;48.80;;;;;;5056632;28;19920;-82
2022/03/06 15:19:11;;;;;;;;;;;5.50;49.00;;;;;;5037845;28;19924;-82
2022/03/06 15:21:37;;;;;;;;;;;5.50;49.30;;;;;;5057860;28;19928;-81
2022/03/06 15:24:03;;;;;;;;;;;5.60;47.50;;;;;;5057957;28;19988;-82
2022/03/06 15:26:28;;;;;;;;;;;5.70;47.10;;;;;;5058199;28;19932;-82
2022/03/06 15:28:54;;;;;;;;;;;5.50;47.40;;;;;;5056166;28;20233;-83
2022/03/06 15:31:20;;;;;;;;;;;5.50;47.90;;;;;;5073474;28;19943;-82
2022/03/06 15:33:46;;;;;;;;;;;5.30;47.10;;;;;;5050143;28;19913;-83
2022/03/06 15:36:12;;;;;;;;;;;5.20;48.80;;;;;;5050597;28;20015;-81